HAZ1206 ZGHA-ZUUU
Flight info
| Callsign | HAZ1206 |
|---|---|
| Flight time | 1h 39m |
| Altitude | 32100 |
| Route | OLT7W OLTUS W226 IPMUG W611 BIVAV W138 DYG DCT SUDPI W80 URGEG W231 EKOKA EKOKA4C |
| Aircraft | A20N/M-SDE2E3FGHIRWXY/LB1 |
Departure
| Time | 2026-04-17 23:42 |
|---|---|
| Airport | Changsha Huanghua International Airport (ZGHA) |
Arrival
| Time | 2026-04-18 01:21 |
|---|---|
| Airport | Chengdu Shuangliu International Airport (ZUUU) |
| Time | Latitude | Longitude | Altitude | Speed | Heading |
|---|---|---|---|---|---|
| 2026-04-17 23:18 | 28.19039 | 113.21589 | 227 ft | 0 kts | 268° |
| 2026-04-17 23:31 | 28.19039 | 113.21592 | 227 ft | 2 kts | 267° |
| 2026-04-17 23:32 | 28.19039 | 113.21609 | 227 ft | 2 kts | 268° |
| 2026-04-17 23:32 | 28.19040 | 113.21626 | 227 ft | 2 kts | 268° |
| 2026-04-17 23:32 | 28.19040 | 113.21640 | 227 ft | 0 kts | 268° |
| 2026-04-17 23:32 | 28.19042 | 113.21654 | 227 ft | 2 kts | 239° |
| 2026-04-17 23:33 | 28.19053 | 113.21666 | 227 ft | 2 kts | 206° |
| 2026-04-17 23:33 | 28.19064 | 113.21669 | 227 ft | 0 kts | 179° |
| 2026-04-17 23:33 | 28.19071 | 113.21668 | 227 ft | 1 kts | 175° |
| 2026-04-17 23:33 | 28.19072 | 113.21668 | 227 ft | 0 kts | 175° |
| 2026-04-17 23:36 | 28.19057 | 113.21670 | 227 ft | 5 kts | 176° |
| 2026-04-17 23:37 | 28.18981 | 113.21674 | 227 ft | 13 kts | 176° |
| 2026-04-17 23:37 | 28.18896 | 113.21695 | 227 ft | 11 kts | 131° |
| 2026-04-17 23:37 | 28.18870 | 113.21780 | 227 ft | 11 kts | 133° |
| 2026-04-17 23:37 | 28.18787 | 113.21796 | 227 ft | 13 kts | 176° |
| 2026-04-17 23:38 | 28.18682 | 113.21802 | 227 ft | 17 kts | 177° |
| 2026-04-17 23:38 | 28.18557 | 113.21810 | 227 ft | 17 kts | 176° |
| 2026-04-17 23:38 | 28.18435 | 113.21818 | 227 ft | 17 kts | 176° |
| 2026-04-17 23:38 | 28.18313 | 113.21825 | 227 ft | 17 kts | 177° |
| 2026-04-17 23:39 | 28.18192 | 113.21833 | 227 ft | 17 kts | 176° |
| 2026-04-17 23:39 | 28.18072 | 113.21841 | 227 ft | 17 kts | 176° |
| 2026-04-17 23:39 | 28.17949 | 113.21848 | 227 ft | 18 kts | 177° |
| 2026-04-17 23:39 | 28.17821 | 113.21856 | 227 ft | 18 kts | 176° |
| 2026-04-17 23:40 | 28.17740 | 113.21931 | 227 ft | 16 kts | 89° |
| 2026-04-17 23:40 | 28.17758 | 113.22022 | 227 ft | 11 kts | 53° |
| 2026-04-17 23:40 | 28.17834 | 113.22044 | 227 ft | 12 kts | 358° |
| 2026-04-17 23:40 | 28.17854 | 113.22043 | 227 ft | 0 kts | 356° |
| 2026-04-17 23:41 | 28.18027 | 113.22032 | 227 ft | 60 kts | 356° |
| 2026-04-17 23:41 | 28.18661 | 113.21993 | 227 ft | 122 kts | 356° |
| 2026-04-17 23:41 | 28.19704 | 113.21928 | 232 ft | 172 kts | 356° |
| 2026-04-17 23:41 | 28.20961 | 113.21864 | 520 ft | 189 kts | 358° |
| 2026-04-17 23:42 | 28.22340 | 113.21826 | 890 ft | 208 kts | 359° |
| 2026-04-17 23:42 | 28.23867 | 113.21813 | 1290 ft | 231 kts | 359° |
| 2026-04-17 23:42 | 28.25461 | 113.21711 | 2212 ft | 227 kts | 355° |
| 2026-04-17 23:42 | 28.27044 | 113.21563 | 2954 ft | 233 kts | 355° |
| 2026-04-17 23:43 | 28.28687 | 113.21425 | 3681 ft | 240 kts | 356° |
| 2026-04-17 23:43 | 28.30339 | 113.21304 | 4461 ft | 243 kts | 356° |
| 2026-04-17 23:43 | 28.32045 | 113.21189 | 5221 ft | 245 kts | 356° |
| 2026-04-17 23:43 | 28.33745 | 113.21080 | 5939 ft | 249 kts | 356° |
| 2026-04-17 23:44 | 28.35481 | 113.20970 | 6642 ft | 251 kts | 355° |
| 2026-04-17 23:44 | 28.37181 | 113.20499 | 7268 ft | 255 kts | 327° |
| 2026-04-17 23:44 | 28.38351 | 113.19040 | 7885 ft | 257 kts | 291° |
| 2026-04-17 23:44 | 28.38585 | 113.17072 | 8505 ft | 259 kts | 264° |
| 2026-04-17 23:45 | 28.38199 | 113.12985 | 9725 ft | 265 kts | 263° |
| 2026-04-17 23:45 | 28.37664 | 113.10983 | 10232 ft | 267 kts | 235° |
| 2026-04-17 23:45 | 28.36266 | 113.09606 | 10616 ft | 273 kts | 203° |
| 2026-04-17 23:46 | 28.34395 | 113.09174 | 10942 ft | 287 kts | 182° |
| 2026-04-17 23:46 | 28.32317 | 113.09106 | 11241 ft | 302 kts | 184° |
| 2026-04-17 23:46 | 28.30154 | 113.08987 | 11537 ft | 318 kts | 185° |
| 2026-04-17 23:46 | 28.27911 | 113.08832 | 11825 ft | 333 kts | 185° |
| 2026-04-17 23:47 | 28.25536 | 113.08655 | 12102 ft | 346 kts | 186° |
| 2026-04-17 23:47 | 28.23093 | 113.08471 | 12368 ft | 360 kts | 186° |
| 2026-04-17 23:47 | 28.20530 | 113.08251 | 12628 ft | 373 kts | 190° |
| 2026-04-17 23:47 | 28.18040 | 113.07360 | 12876 ft | 380 kts | 212° |
| 2026-04-17 23:48 | 28.15982 | 113.05512 | 13323 ft | 378 kts | 231° |
| 2026-04-17 23:48 | 28.14608 | 113.03030 | 13853 ft | 375 kts | 250° |
| 2026-04-17 23:48 | 28.14000 | 113.00202 | 14386 ft | 371 kts | 264° |
| 2026-04-17 23:48 | 28.13734 | 112.97269 | 14870 ft | 374 kts | 267° |
| 2026-04-17 23:49 | 28.13631 | 112.94310 | 15362 ft | 377 kts | 271° |
| 2026-04-17 23:49 | 28.13703 | 112.91340 | 15877 ft | 378 kts | 274° |
| 2026-04-17 23:49 | 28.13871 | 112.88407 | 16378 ft | 380 kts | 275° |
| 2026-04-17 23:49 | 28.14052 | 112.85411 | 16888 ft | 382 kts | 275° |
| 2026-04-17 23:50 | 28.14232 | 112.82421 | 17386 ft | 383 kts | 275° |
| 2026-04-17 23:50 | 28.14411 | 112.79408 | 17877 ft | 384 kts | 275° |
| 2026-04-17 23:50 | 28.14589 | 112.76397 | 18370 ft | 386 kts | 275° |
| 2026-04-17 23:50 | 28.14766 | 112.73377 | 18858 ft | 387 kts | 276° |
| 2026-04-17 23:51 | 28.14942 | 112.70338 | 19337 ft | 388 kts | 276° |
| 2026-04-17 23:51 | 28.15117 | 112.67298 | 19808 ft | 389 kts | 276° |
| 2026-04-17 23:51 | 28.15292 | 112.64233 | 20275 ft | 390 kts | 276° |
| 2026-04-17 23:51 | 28.15466 | 112.61192 | 20701 ft | 391 kts | 276° |
| 2026-04-17 23:52 | 28.15640 | 112.58095 | 21128 ft | 393 kts | 276° |
| 2026-04-17 23:52 | 28.15813 | 112.55002 | 21565 ft | 394 kts | 276° |
| 2026-04-17 23:52 | 28.15986 | 112.51905 | 21974 ft | 396 kts | 276° |
| 2026-04-17 23:52 | 28.16158 | 112.48810 | 22376 ft | 398 kts | 276° |
| 2026-04-17 23:53 | 28.16333 | 112.45685 | 22784 ft | 400 kts | 276° |
| 2026-04-17 23:53 | 28.16509 | 112.42519 | 23189 ft | 401 kts | 276° |
| 2026-04-17 23:53 | 28.16683 | 112.39388 | 23575 ft | 403 kts | 276° |
| 2026-04-17 23:53 | 28.16856 | 112.36209 | 23957 ft | 405 kts | 275° |
| 2026-04-17 23:54 | 28.17028 | 112.33035 | 24345 ft | 406 kts | 275° |
| 2026-04-17 23:54 | 28.17201 | 112.29834 | 24736 ft | 408 kts | 275° |
| 2026-04-17 23:54 | 28.17373 | 112.26639 | 25111 ft | 410 kts | 275° |
| 2026-04-17 23:54 | 28.17552 | 112.23420 | 25492 ft | 410 kts | 276° |
| 2026-04-17 23:55 | 28.17840 | 112.20203 | 25868 ft | 410 kts | 278° |
| 2026-04-17 23:55 | 28.18217 | 112.17000 | 26234 ft | 410 kts | 278° |
| 2026-04-17 23:55 | 28.18601 | 112.13802 | 26574 ft | 410 kts | 278° |
| 2026-04-17 23:55 | 28.18983 | 112.10634 | 26885 ft | 411 kts | 278° |
| 2026-04-17 23:56 | 28.19373 | 112.07394 | 27222 ft | 410 kts | 278° |
| 2026-04-17 23:56 | 28.19750 | 112.04247 | 27627 ft | 407 kts | 278° |
| 2026-04-17 23:56 | 28.20203 | 112.01075 | 28033 ft | 404 kts | 282° |
| 2026-04-17 23:56 | 28.20948 | 111.98014 | 28409 ft | 403 kts | 287° |
| 2026-04-17 23:57 | 28.21973 | 111.95089 | 28794 ft | 402 kts | 292° |
| 2026-04-17 23:57 | 28.23280 | 111.92281 | 29183 ft | 403 kts | 297° |
| 2026-04-17 23:57 | 28.24771 | 111.89592 | 29589 ft | 401 kts | 298° |
| 2026-04-17 23:57 | 28.26279 | 111.86938 | 29998 ft | 399 kts | 298° |
| 2026-04-17 23:58 | 28.27782 | 111.84307 | 30403 ft | 396 kts | 298° |
| 2026-04-17 23:58 | 28.29282 | 111.81685 | 30762 ft | 395 kts | 298° |
| 2026-04-17 23:58 | 28.30772 | 111.79076 | 31051 ft | 396 kts | 298° |
| 2026-04-17 23:58 | 28.32274 | 111.76447 | 31281 ft | 398 kts | 297° |
| 2026-04-17 23:59 | 28.33787 | 111.73797 | 31485 ft | 400 kts | 297° |
| 2026-04-17 23:59 | 28.35294 | 111.71158 | 31681 ft | 402 kts | 297° |
| 2026-04-17 23:59 | 28.36819 | 111.68487 | 31849 ft | 404 kts | 297° |
| 2026-04-17 23:59 | 28.38355 | 111.65795 | 32031 ft | 405 kts | 297° |
| 2026-04-18 00:00 | 28.39892 | 111.63100 | 32127 ft | 406 kts | 297° |
| 2026-04-18 00:00 | 28.42956 | 111.57723 | 32151 ft | 407 kts | 297° |
| 2026-04-18 00:01 | 28.46024 | 111.52329 | 32146 ft | 407 kts | 297° |
| 2026-04-18 00:01 | 28.49105 | 111.46906 | 32111 ft | 407 kts | 297° |
| 2026-04-18 00:02 | 28.52161 | 111.41522 | 32074 ft | 407 kts | 297° |
| 2026-04-18 00:02 | 28.55237 | 111.36096 | 32050 ft | 406 kts | 297° |
| 2026-04-18 00:03 | 28.58300 | 111.30684 | 32044 ft | 406 kts | 297° |
| 2026-04-18 00:03 | 28.61350 | 111.25292 | 32043 ft | 405 kts | 297° |
| 2026-04-18 00:04 | 28.64390 | 111.19908 | 32044 ft | 405 kts | 297° |
| 2026-04-18 00:04 | 28.67433 | 111.14533 | 32046 ft | 405 kts | 298° |
| 2026-04-18 00:05 | 28.70502 | 111.09157 | 32047 ft | 405 kts | 298° |
| 2026-04-18 00:05 | 28.73551 | 111.03808 | 32067 ft | 405 kts | 298° |
| 2026-04-18 00:06 | 28.76611 | 110.98429 | 32073 ft | 403 kts | 298° |
| 2026-04-18 00:06 | 28.79647 | 110.93088 | 32043 ft | 402 kts | 299° |
| 2026-04-18 00:07 | 28.82681 | 110.87746 | 32026 ft | 402 kts | 299° |
| 2026-04-18 00:07 | 28.85731 | 110.82368 | 32022 ft | 403 kts | 299° |
| 2026-04-18 00:08 | 28.88754 | 110.77032 | 32021 ft | 402 kts | 299° |
| 2026-04-18 00:08 | 28.91788 | 110.71668 | 32023 ft | 402 kts | 299° |
| 2026-04-18 00:09 | 28.94810 | 110.66318 | 32027 ft | 402 kts | 299° |
| 2026-04-18 00:09 | 28.97837 | 110.60950 | 32032 ft | 402 kts | 299° |
| 2026-04-18 00:10 | 29.00864 | 110.55577 | 32039 ft | 402 kts | 299° |
| 2026-04-18 00:10 | 29.03892 | 110.50197 | 32045 ft | 403 kts | 299° |
| 2026-04-18 00:11 | 29.06919 | 110.44810 | 32048 ft | 403 kts | 299° |
| 2026-04-18 00:11 | 29.09924 | 110.39431 | 32046 ft | 402 kts | 298° |
| 2026-04-18 00:12 | 29.12823 | 110.33931 | 32045 ft | 402 kts | 297° |
| 2026-04-18 00:12 | 29.15688 | 110.28461 | 32040 ft | 402 kts | 298° |
| 2026-04-18 00:13 | 29.18563 | 110.22984 | 32036 ft | 402 kts | 298° |
| 2026-04-18 00:13 | 29.21436 | 110.17506 | 32035 ft | 402 kts | 298° |
| 2026-04-18 00:14 | 29.24330 | 110.11983 | 32037 ft | 403 kts | 298° |
| 2026-04-18 00:14 | 29.27204 | 110.06496 | 32041 ft | 403 kts | 298° |
| 2026-04-18 00:15 | 29.30070 | 110.01015 | 32043 ft | 403 kts | 298° |
| 2026-04-18 00:15 | 29.32962 | 109.95476 | 32049 ft | 403 kts | 298° |
| 2026-04-18 00:16 | 29.35819 | 109.89997 | 32054 ft | 403 kts | 298° |
| 2026-04-18 00:16 | 29.38689 | 109.84489 | 32053 ft | 403 kts | 298° |
| 2026-04-18 00:17 | 29.41560 | 109.78971 | 32055 ft | 403 kts | 298° |
| 2026-04-18 00:17 | 29.44420 | 109.73467 | 32060 ft | 403 kts | 298° |
| 2026-04-18 00:18 | 29.47293 | 109.67929 | 32063 ft | 403 kts | 298° |
| 2026-04-18 00:18 | 29.50144 | 109.62425 | 32060 ft | 403 kts | 298° |
| 2026-04-18 00:19 | 29.53012 | 109.56881 | 32055 ft | 403 kts | 298° |
| 2026-04-18 00:19 | 29.55865 | 109.51360 | 32050 ft | 403 kts | 298° |
| 2026-04-18 00:20 | 29.58720 | 109.45825 | 32048 ft | 403 kts | 298° |
| 2026-04-18 00:20 | 29.61558 | 109.40318 | 32050 ft | 403 kts | 298° |
| 2026-04-18 00:21 | 29.64419 | 109.34757 | 32047 ft | 403 kts | 298° |
| 2026-04-18 00:21 | 29.67283 | 109.29182 | 32045 ft | 403 kts | 298° |
| 2026-04-18 00:22 | 29.70115 | 109.23663 | 32050 ft | 403 kts | 298° |
| 2026-04-18 00:22 | 29.72966 | 109.18099 | 32054 ft | 403 kts | 298° |
| 2026-04-18 00:23 | 29.75791 | 109.12580 | 32055 ft | 403 kts | 298° |
| 2026-04-18 00:23 | 29.78634 | 109.07019 | 32054 ft | 402 kts | 298° |
| 2026-04-18 00:24 | 29.81463 | 109.01475 | 32052 ft | 402 kts | 298° |
| 2026-04-18 00:24 | 29.84295 | 108.95918 | 32052 ft | 402 kts | 298° |
| 2026-04-18 00:25 | 29.87116 | 108.90375 | 32054 ft | 401 kts | 298° |
| 2026-04-18 00:25 | 29.89926 | 108.84842 | 32057 ft | 401 kts | 298° |
| 2026-04-18 00:26 | 29.92497 | 108.79150 | 32058 ft | 400 kts | 290° |
| 2026-04-18 00:26 | 29.93942 | 108.72995 | 32060 ft | 400 kts | 279° |
| 2026-04-18 00:27 | 29.94178 | 108.66576 | 32059 ft | 403 kts | 269° |
| 2026-04-18 00:27 | 29.93161 | 108.60191 | 32056 ft | 408 kts | 258° |
| 2026-04-18 00:28 | 29.91561 | 108.53923 | 32048 ft | 408 kts | 258° |
| 2026-04-18 00:28 | 29.89914 | 108.47660 | 32040 ft | 409 kts | 258° |
| 2026-04-18 00:29 | 29.88251 | 108.41406 | 32045 ft | 409 kts | 258° |
| 2026-04-18 00:29 | 29.86580 | 108.35177 | 32043 ft | 409 kts | 258° |
| 2026-04-18 00:30 | 29.84899 | 108.28914 | 31991 ft | 409 kts | 257° |
| 2026-04-18 00:30 | 29.83216 | 108.22638 | 31886 ft | 409 kts | 257° |
| 2026-04-18 00:31 | 29.81540 | 108.16398 | 31912 ft | 409 kts | 257° |
| 2026-04-18 00:31 | 29.79863 | 108.10168 | 32005 ft | 410 kts | 257° |
| 2026-04-18 00:32 | 29.78170 | 108.03889 | 32058 ft | 409 kts | 257° |
| 2026-04-18 00:32 | 29.76482 | 107.97639 | 32066 ft | 409 kts | 257° |
| 2026-04-18 00:33 | 29.74792 | 107.91410 | 32072 ft | 409 kts | 257° |
| 2026-04-18 00:33 | 29.73087 | 107.85154 | 32074 ft | 409 kts | 257° |
| 2026-04-18 00:34 | 29.71396 | 107.78950 | 32060 ft | 409 kts | 257° |
| 2026-04-18 00:34 | 29.69688 | 107.72684 | 31970 ft | 409 kts | 257° |
| 2026-04-18 00:35 | 29.68008 | 107.66462 | 31987 ft | 408 kts | 259° |
| 2026-04-18 00:35 | 29.66967 | 107.60115 | 32052 ft | 404 kts | 268° |
| 2026-04-18 00:36 | 29.66836 | 107.53713 | 32078 ft | 401 kts | 275° |
| 2026-04-18 00:36 | 29.67603 | 107.47376 | 32088 ft | 400 kts | 283° |
| 2026-04-18 00:37 | 29.69104 | 107.41233 | 32087 ft | 399 kts | 287° |
| 2026-04-18 00:37 | 29.70552 | 107.35078 | 32075 ft | 400 kts | 284° |
| 2026-04-18 00:38 | 29.71892 | 107.28879 | 32065 ft | 400 kts | 287° |
| 2026-04-18 00:38 | 29.73938 | 107.22932 | 32061 ft | 402 kts | 294° |
| 2026-04-18 00:39 | 29.76826 | 107.17375 | 32058 ft | 405 kts | 303° |
| 2026-04-18 00:39 | 29.80471 | 107.12423 | 32060 ft | 409 kts | 311° |
| 2026-04-18 00:40 | 29.84668 | 107.07924 | 32063 ft | 411 kts | 313° |
| 2026-04-18 00:40 | 29.88883 | 107.03506 | 32066 ft | 411 kts | 313° |
| 2026-04-18 00:41 | 29.93124 | 106.99068 | 32070 ft | 411 kts | 313° |
| 2026-04-18 00:41 | 29.97378 | 106.94611 | 32076 ft | 412 kts | 313° |
| 2026-04-18 00:42 | 30.01598 | 106.90187 | 32082 ft | 412 kts | 313° |
| 2026-04-18 00:42 | 30.05843 | 106.85728 | 32097 ft | 411 kts | 313° |
| 2026-04-18 00:43 | 30.10068 | 106.81284 | 32100 ft | 410 kts | 314° |
| 2026-04-18 00:43 | 30.14301 | 106.76826 | 32081 ft | 410 kts | 314° |
| 2026-04-18 00:44 | 30.18516 | 106.72380 | 32071 ft | 410 kts | 314° |
| 2026-04-18 00:44 | 30.22725 | 106.67934 | 32068 ft | 411 kts | 314° |
| 2026-04-18 00:45 | 30.26943 | 106.63474 | 32066 ft | 410 kts | 314° |
| 2026-04-18 00:45 | 30.31157 | 106.59013 | 32067 ft | 410 kts | 314° |
| 2026-04-18 00:46 | 30.35378 | 106.54538 | 32067 ft | 410 kts | 314° |
| 2026-04-18 00:46 | 30.39559 | 106.50100 | 32067 ft | 410 kts | 314° |
| 2026-04-18 00:47 | 30.43776 | 106.45618 | 32067 ft | 410 kts | 314° |
| 2026-04-18 00:47 | 30.48000 | 106.41123 | 32067 ft | 411 kts | 314° |
| 2026-04-18 00:48 | 30.52198 | 106.36652 | 32065 ft | 411 kts | 314° |
| 2026-04-18 00:48 | 30.56363 | 106.32082 | 32065 ft | 410 kts | 311° |
| 2026-04-18 00:49 | 30.61861 | 106.24555 | 32064 ft | 407 kts | 304° |
| 2026-04-18 00:49 | 30.65013 | 106.19111 | 32064 ft | 407 kts | 301° |
| 2026-04-18 00:50 | 30.68081 | 106.13569 | 32064 ft | 407 kts | 301° |
| 2026-04-18 00:50 | 30.70695 | 106.07797 | 32063 ft | 406 kts | 291° |
| 2026-04-18 00:51 | 30.72263 | 106.01505 | 32063 ft | 407 kts | 282° |
| 2026-04-18 00:51 | 30.72726 | 105.94891 | 32062 ft | 412 kts | 272° |
| 2026-04-18 00:52 | 30.72104 | 105.88262 | 32063 ft | 416 kts | 265° |
| 2026-04-18 00:52 | 30.71187 | 105.81641 | 32062 ft | 417 kts | 265° |
| 2026-04-18 00:53 | 30.70251 | 105.75017 | 32063 ft | 417 kts | 265° |
| 2026-04-18 00:53 | 30.69308 | 105.68378 | 32064 ft | 417 kts | 265° |
| 2026-04-18 00:54 | 30.68361 | 105.61741 | 32064 ft | 417 kts | 265° |
| 2026-04-18 00:54 | 30.67407 | 105.55079 | 32061 ft | 417 kts | 265° |
| 2026-04-18 00:55 | 30.66455 | 105.48448 | 31963 ft | 418 kts | 265° |
| 2026-04-18 00:55 | 30.65978 | 105.45141 | 31749 ft | 416 kts | 265° |
| 2026-04-18 00:55 | 30.65496 | 105.41806 | 31534 ft | 414 kts | 265° |
| 2026-04-18 00:56 | 30.65021 | 105.38532 | 31321 ft | 412 kts | 265° |
| 2026-04-18 00:56 | 30.64549 | 105.35275 | 31073 ft | 409 kts | 265° |
| 2026-04-18 00:56 | 30.64074 | 105.32021 | 30798 ft | 409 kts | 264° |
| 2026-04-18 00:56 | 30.63604 | 105.28792 | 30525 ft | 410 kts | 264° |
| 2026-04-18 00:57 | 30.63125 | 105.25518 | 30248 ft | 411 kts | 264° |
| 2026-04-18 00:57 | 30.62643 | 105.22220 | 29969 ft | 413 kts | 265° |
| 2026-04-18 00:57 | 30.62297 | 105.18930 | 29691 ft | 411 kts | 270° |
| 2026-04-18 00:57 | 30.62243 | 105.15654 | 29417 ft | 410 kts | 275° |
| 2026-04-18 00:58 | 30.62475 | 105.12360 | 29154 ft | 409 kts | 280° |
| 2026-04-18 00:58 | 30.62997 | 105.09084 | 28891 ft | 409 kts | 285° |
| 2026-04-18 00:58 | 30.63793 | 105.05920 | 28632 ft | 409 kts | 290° |
| 2026-04-18 00:58 | 30.64810 | 105.02865 | 28377 ft | 410 kts | 293° |
| 2026-04-18 00:59 | 30.65891 | 104.99789 | 28117 ft | 411 kts | 293° |
| 2026-04-18 00:59 | 30.66986 | 104.96706 | 27858 ft | 413 kts | 294° |
| 2026-04-18 00:59 | 30.68089 | 104.93603 | 27598 ft | 414 kts | 294° |
| 2026-04-18 00:59 | 30.69180 | 104.90533 | 27296 ft | 417 kts | 294° |
| 2026-04-18 01:00 | 30.70296 | 104.87388 | 26662 ft | 419 kts | 294° |
| 2026-04-18 01:00 | 30.71404 | 104.84263 | 25851 ft | 421 kts | 294° |
| 2026-04-18 01:00 | 30.72511 | 104.81137 | 25246 ft | 415 kts | 294° |
| 2026-04-18 01:00 | 30.73585 | 104.78101 | 24675 ft | 410 kts | 294° |
| 2026-04-18 01:01 | 30.74663 | 104.75053 | 24094 ft | 405 kts | 294° |
| 2026-04-18 01:01 | 30.75730 | 104.72031 | 23493 ft | 401 kts | 294° |
| 2026-04-18 01:01 | 30.76789 | 104.69031 | 22894 ft | 397 kts | 294° |
| 2026-04-18 01:01 | 30.77817 | 104.66116 | 22315 ft | 392 kts | 294° |
| 2026-04-18 01:02 | 30.78850 | 104.63180 | 21734 ft | 389 kts | 294° |
| 2026-04-18 01:02 | 30.79875 | 104.60271 | 21173 ft | 386 kts | 294° |
| 2026-04-18 01:02 | 30.80871 | 104.57418 | 20625 ft | 383 kts | 294° |
| 2026-04-18 01:02 | 30.81856 | 104.54550 | 20069 ft | 380 kts | 294° |
| 2026-04-18 01:03 | 30.82835 | 104.51688 | 19511 ft | 378 kts | 294° |
| 2026-04-18 01:03 | 30.83795 | 104.48885 | 18964 ft | 376 kts | 294° |
| 2026-04-18 01:03 | 30.84527 | 104.45963 | 18392 ft | 378 kts | 280° |
| 2026-04-18 01:03 | 30.84457 | 104.42880 | 17828 ft | 383 kts | 263° |
| 2026-04-18 01:04 | 30.83592 | 104.39956 | 17261 ft | 389 kts | 246° |
| 2026-04-18 01:04 | 30.81978 | 104.37413 | 16702 ft | 395 kts | 229° |
| 2026-04-18 01:04 | 30.79762 | 104.35551 | 16133 ft | 401 kts | 210° |
| 2026-04-18 01:04 | 30.77172 | 104.34283 | 15577 ft | 401 kts | 204° |
| 2026-04-18 01:05 | 30.74594 | 104.33116 | 15018 ft | 399 kts | 204° |
| 2026-04-18 01:05 | 30.71999 | 104.31934 | 14451 ft | 396 kts | 204° |
| 2026-04-18 01:05 | 30.69434 | 104.30749 | 13887 ft | 394 kts | 204° |
| 2026-04-18 01:05 | 30.66903 | 104.29496 | 13330 ft | 389 kts | 211° |
| 2026-04-18 01:06 | 30.64918 | 104.27569 | 13099 ft | 367 kts | 236° |
| 2026-04-18 01:06 | 30.63889 | 104.24978 | 12938 ft | 345 kts | 260° |
| 2026-04-18 01:06 | 30.63819 | 104.22290 | 12780 ft | 323 kts | 280° |
| 2026-04-18 01:06 | 30.64459 | 104.19916 | 12646 ft | 297 kts | 292° |
| 2026-04-18 01:07 | 30.65256 | 104.17804 | 12539 ft | 279 kts | 294° |
| 2026-04-18 01:07 | 30.66262 | 104.15942 | 12406 ft | 268 kts | 315° |
| 2026-04-18 01:07 | 30.67800 | 104.14807 | 12313 ft | 261 kts | 339° |
| 2026-04-18 01:07 | 30.69606 | 104.14520 | 12228 ft | 266 kts | 4° |
| 2026-04-18 01:08 | 30.71419 | 104.15099 | 12164 ft | 270 kts | 19° |
| 2026-04-18 01:08 | 30.73146 | 104.15936 | 12107 ft | 270 kts | 20° |
| 2026-04-18 01:08 | 30.74884 | 104.16791 | 12049 ft | 270 kts | 20° |
| 2026-04-18 01:08 | 30.76617 | 104.17629 | 11838 ft | 272 kts | 20° |
| 2026-04-18 01:09 | 30.78378 | 104.18468 | 11504 ft | 271 kts | 20° |
| 2026-04-18 01:09 | 30.80099 | 104.19282 | 11184 ft | 269 kts | 19° |
| 2026-04-18 01:09 | 30.81832 | 104.20099 | 10866 ft | 268 kts | 19° |
| 2026-04-18 01:09 | 30.83558 | 104.20912 | 10551 ft | 267 kts | 19° |
| 2026-04-18 01:10 | 30.85286 | 104.21725 | 10117 ft | 271 kts | 20° |
| 2026-04-18 01:10 | 30.87053 | 104.22558 | 9706 ft | 273 kts | 20° |
| 2026-04-18 01:10 | 30.88816 | 104.23389 | 9383 ft | 271 kts | 20° |
| 2026-04-18 01:10 | 30.90587 | 104.24126 | 9029 ft | 270 kts | 8° |
| 2026-04-18 01:11 | 30.92405 | 104.23916 | 8667 ft | 263 kts | 332° |
| 2026-04-18 01:11 | 30.93744 | 104.22541 | 8345 ft | 255 kts | 297° |
| 2026-04-18 01:11 | 30.94339 | 104.20646 | 8079 ft | 250 kts | 283° |
| 2026-04-18 01:11 | 30.94786 | 104.18692 | 7787 ft | 248 kts | 284° |
| 2026-04-18 01:12 | 30.95295 | 104.16785 | 7499 ft | 246 kts | 287° |
| 2026-04-18 01:12 | 30.95816 | 104.14915 | 7192 ft | 245 kts | 278° |
| 2026-04-18 01:12 | 30.95645 | 104.12997 | 6858 ft | 239 kts | 240° |
| 2026-04-18 01:12 | 30.94496 | 104.11648 | 6560 ft | 233 kts | 204° |
| 2026-04-18 01:13 | 30.92992 | 104.11014 | 6312 ft | 229 kts | 198° |
| 2026-04-18 01:13 | 30.91505 | 104.10400 | 6032 ft | 227 kts | 200° |
| 2026-04-18 01:13 | 30.90029 | 104.09745 | 5753 ft | 225 kts | 201° |
| 2026-04-18 01:13 | 30.88586 | 104.09081 | 5480 ft | 222 kts | 201° |
| 2026-04-18 01:14 | 30.87162 | 104.08420 | 5213 ft | 220 kts | 202° |
| 2026-04-18 01:14 | 30.85741 | 104.07757 | 4946 ft | 217 kts | 202° |
| 2026-04-18 01:14 | 30.84350 | 104.07089 | 4687 ft | 215 kts | 202° |
| 2026-04-18 01:14 | 30.82964 | 104.06418 | 4428 ft | 213 kts | 202° |
| 2026-04-18 01:15 | 30.81601 | 104.05765 | 4176 ft | 211 kts | 202° |
| 2026-04-18 01:15 | 30.80229 | 104.05116 | 3968 ft | 211 kts | 202° |
| 2026-04-18 01:15 | 30.78881 | 104.04487 | 3947 ft | 211 kts | 202° |
| 2026-04-18 01:15 | 30.77505 | 104.03844 | 3972 ft | 208 kts | 202° |
| 2026-04-18 01:16 | 30.76228 | 104.03246 | 4001 ft | 186 kts | 201° |
| 2026-04-18 01:16 | 30.75091 | 104.02718 | 3938 ft | 161 kts | 201° |
| 2026-04-18 01:16 | 30.74095 | 104.02257 | 3909 ft | 149 kts | 201° |
| 2026-04-18 01:16 | 30.73132 | 104.01812 | 3920 ft | 148 kts | 201° |
| 2026-04-18 01:17 | 30.72177 | 104.01369 | 3928 ft | 148 kts | 201° |
| 2026-04-18 01:17 | 30.71225 | 104.00928 | 3932 ft | 148 kts | 201° |
| 2026-04-18 01:17 | 30.70269 | 104.00483 | 3911 ft | 148 kts | 201° |
| 2026-04-18 01:17 | 30.69308 | 104.00036 | 3726 ft | 147 kts | 201° |
| 2026-04-18 01:18 | 30.68351 | 103.99590 | 3537 ft | 147 kts | 201° |
| 2026-04-18 01:18 | 30.67407 | 103.99151 | 3349 ft | 146 kts | 201° |
| 2026-04-18 01:18 | 30.66450 | 103.98706 | 3156 ft | 146 kts | 201° |
| 2026-04-18 01:18 | 30.65499 | 103.98257 | 2972 ft | 148 kts | 202° |
| 2026-04-18 01:19 | 30.64563 | 103.97819 | 2771 ft | 145 kts | 202° |
| 2026-04-18 01:19 | 30.63628 | 103.97379 | 2567 ft | 144 kts | 202° |
| 2026-04-18 01:19 | 30.62677 | 103.96941 | 2372 ft | 145 kts | 202° |
| 2026-04-18 01:19 | 30.61739 | 103.96512 | 2197 ft | 145 kts | 202° |
| 2026-04-18 01:20 | 30.60790 | 103.96072 | 2007 ft | 146 kts | 203° |
| 2026-04-18 01:20 | 30.59848 | 103.95631 | 1823 ft | 147 kts | 203° |
| 2026-04-18 01:20 | 30.58894 | 103.95182 | 1695 ft | 142 kts | 204° |
| 2026-04-18 01:20 | 30.58083 | 103.94804 | 1690 ft | 104 kts | 202° |
| 2026-04-18 01:21 | 30.57573 | 103.94569 | 1690 ft | 43 kts | 200° |
| 2026-04-18 01:21 | 30.57350 | 103.94469 | 1689 ft | 22 kts | 196° |
| 2026-04-18 01:21 | 30.57208 | 103.94446 | 1689 ft | 19 kts | 180° |
| 2026-04-18 01:21 | 30.57079 | 103.94460 | 1689 ft | 17 kts | 171° |
| 2026-04-18 01:22 | 30.57037 | 103.94530 | 1689 ft | 12 kts | 77° |
| 2026-04-18 01:22 | 30.57054 | 103.94627 | 1689 ft | 12 kts | 42° |
| 2026-04-18 01:22 | 30.57137 | 103.94671 | 1689 ft | 13 kts | 22° |
| 2026-04-18 01:22 | 30.57225 | 103.94712 | 1689 ft | 13 kts | 22° |
| 2026-04-18 01:23 | 30.57293 | 103.94776 | 1689 ft | 13 kts | 96° |
| 2026-04-18 01:23 | 30.57262 | 103.94881 | 1690 ft | 14 kts | 112° |
| 2026-04-18 01:23 | 30.57274 | 103.94974 | 1690 ft | 12 kts | 77° |
| 2026-04-18 01:23 | 30.57286 | 103.95039 | 1689 ft | 0 kts | 78° |